sensor_id;sensor_type;location;lat;lon;timestamp;P1;durP1;ratioP1;P2;durP2;ratioP2
84101;SDS011;74198;51.618;8.334;2024-02-21T00:01:39;19.20;;;7.25;;
84101;SDS011;74198;51.618;8.334;2024-02-21T00:04:05;18.45;;;7.95;;
84101;SDS011;74198;51.618;8.334;2024-02-21T00:06:31;21.33;;;8.60;;
84101;SDS011;74198;51.618;8.334;2024-02-21T00:08:57;19.63;;;8.05;;
84101;SDS011;74198;51.618;8.334;2024-02-21T00:11:23;23.90;;;9.95;;
84101;SDS011;74198;51.618;8.334;2024-02-21T00:13:49;16.35;;;7.72;;
84101;SDS011;74198;51.618;8.334;2024-02-21T00:16:16;17.35;;;7.75;;
84101;SDS011;74198;51.618;8.334;2024-02-21T00:18:42;20.45;;;8.13;;
84101;SDS011;74198;51.618;8.334;2024-02-21T00:21:08;25.25;;;9.45;;
84101;SDS011;74198;51.618;8.334;2024-02-21T00:23:34;18.02;;;7.20;;
84101;SDS011;74198;51.618;8.334;2024-02-21T00:26:00;19.33;;;7.65;;
84101;SDS011;74198;51.618;8.334;2024-02-21T00:28:26;21.73;;;7.93;;
84101;SDS011;74198;51.618;8.334;2024-02-21T00:30:52;20.42;;;8.40;;
84101;SDS011;74198;51.618;8.334;2024-02-21T00:33:19;28.48;;;8.27;;
84101;SDS011;74198;51.618;8.334;2024-02-21T00:35:45;16.90;;;6.25;;
84101;SDS011;74198;51.618;8.334;2024-02-21T00:38:11;21.42;;;7.35;;
84101;SDS011;74198;51.618;8.334;2024-02-21T00:40:37;20.95;;;8.43;;
84101;SDS011;74198;51.618;8.334;2024-02-21T00:43:03;25.02;;;8.73;;
84101;SDS011;74198;51.618;8.334;2024-02-21T00:45:29;21.17;;;9.02;;
84101;SDS011;74198;51.618;8.334;2024-02-21T00:47:55;15.73;;;5.97;;
84101;SDS011;74198;51.618;8.334;2024-02-21T00:50:21;12.68;;;3.83;;
84101;SDS011;74198;51.618;8.334;2024-02-21T00:52:47;20.98;;;7.95;;
84101;SDS011;74198;51.618;8.334;2024-02-21T00:55:13;20.75;;;8.35;;
84101;SDS011;74198;51.618;8.334;2024-02-21T00:57:39;19.05;;;8.05;;
84101;SDS011;74198;51.618;8.334;2024-02-21T01:00:06;15.20;;;6.63;;
84101;SDS011;74198;51.618;8.334;2024-02-21T01:02:33;18.05;;;8.32;;
84101;SDS011;74198;51.618;8.334;2024-02-21T01:04:59;20.58;;;8.65;;
84101;SDS011;74198;51.618;8.334;2024-02-21T01:07:26;20.70;;;9.48;;
84101;SDS011;74198;51.618;8.334;2024-02-21T01:09:52;27.63;;;8.73;;
84101;SDS011;74198;51.618;8.334;2024-02-21T01:12:18;21.48;;;8.38;;
84101;SDS011;74198;51.618;8.334;2024-02-21T01:14:44;19.20;;;7.70;;
84101;SDS011;74198;51.618;8.334;2024-02-21T01:17:14;17.27;;;6.93;;
84101;SDS011;74198;51.618;8.334;2024-02-21T01:19:40;17.55;;;8.35;;
84101;SDS011;74198;51.618;8.334;2024-02-21T01:22:06;10.23;;;4.20;;
84101;SDS011;74198;51.618;8.334;2024-02-21T01:24:32;20.98;;;8.35;;
84101;SDS011;74198;51.618;8.334;2024-02-21T01:26:58;20.17;;;7.38;;
84101;SDS011;74198;51.618;8.334;2024-02-21T01:29:24;15.10;;;6.55;;
84101;SDS011;74198;51.618;8.334;2024-02-21T01:31:50;16.40;;;7.53;;
84101;SDS011;74198;51.618;8.334;2024-02-21T01:34:16;18.23;;;7.90;;
84101;SDS011;74198;51.618;8.334;2024-02-21T01:36:42;18.73;;;9.32;;
84101;SDS011;74198;51.618;8.334;2024-02-21T01:39:08;13.65;;;4.45;;
84101;SDS011;74198;51.618;8.334;2024-02-21T01:41:34;19.48;;;7.55;;
84101;SDS011;74198;51.618;8.334;2024-02-21T01:44:00;17.60;;;8.00;;
84101;SDS011;74198;51.618;8.334;2024-02-21T01:46:26;18.33;;;8.38;;
84101;SDS011;74198;51.618;8.334;2024-02-21T01:48:59;17.25;;;6.53;;
84101;SDS011;74198;51.618;8.334;2024-02-21T01:51:25;22.90;;;8.27;;
84101;SDS011;74198;51.618;8.334;2024-02-21T01:53:51;21.17;;;7.90;;
84101;SDS011;74198;51.618;8.334;2024-02-21T01:56:17;18.60;;;7.70;;
84101;SDS011;74198;51.618;8.334;2024-02-21T01:58:43;19.67;;;7.32;;
84101;SDS011;74198;51.618;8.334;2024-02-21T02:01:09;16.48;;;6.93;;
84101;SDS011;74198;51.618;8.334;2024-02-21T02:03:36;17.85;;;7.47;;
84101;SDS011;74198;51.618;8.334;2024-02-21T02:06:02;16.40;;;6.50;;
84101;SDS011;74198;51.618;8.334;2024-02-21T02:08:28;13.93;;;6.88;;
84101;SDS011;74198;51.618;8.334;2024-02-21T02:10:54;21.48;;;7.22;;
84101;SDS011;74198;51.618;8.334;2024-02-21T02:13:20;17.27;;;7.03;;
84101;SDS011;74198;51.618;8.334;2024-02-21T02:15:47;18.60;;;7.03;;
84101;SDS011;74198;51.618;8.334;2024-02-21T02:18:14;14.55;;;5.88;;
84101;SDS011;74198;51.618;8.334;2024-02-21T02:20:40;15.57;;;5.90;;
84101;SDS011;74198;51.618;8.334;2024-02-21T02:25:45;22.02;;;8.02;;
84101;SDS011;74198;51.618;8.334;2024-02-21T02:28:14;11.32;;;4.30;;
84101;SDS011;74198;51.618;8.334;2024-02-21T02:30:40;18.30;;;5.95;;
84101;SDS011;74198;51.618;8.334;2024-02-21T02:33:06;16.83;;;6.57;;
84101;SDS011;74198;51.618;8.334;2024-02-21T02:35:32;14.50;;;5.22;;
84101;SDS011;74198;51.618;8.334;2024-02-21T02:38:00;11.77;;;5.80;;
84101;SDS011;74198;51.618;8.334;2024-02-21T02:40:26;11.05;;;5.63;;
84101;SDS011;74198;51.618;8.334;2024-02-21T02:42:52;14.73;;;6.65;;
84101;SDS011;74198;51.618;8.334;2024-02-21T02:45:20;16.23;;;5.97;;
84101;SDS011;74198;51.618;8.334;2024-02-21T02:47:47;10.63;;;4.88;;
84101;SDS011;74198;51.618;8.334;2024-02-21T02:50:13;18.40;;;6.63;;
84101;SDS011;74198;51.618;8.334;2024-02-21T02:52:40;20.13;;;5.90;;
84101;SDS011;74198;51.618;8.334;2024-02-21T02:55:06;14.93;;;5.85;;
84101;SDS011;74198;51.618;8.334;2024-02-21T02:57:32;13.82;;;5.88;;
84101;SDS011;74198;51.618;8.334;2024-02-21T02:59:58;14.88;;;5.45;;
84101;SDS011;74198;51.618;8.334;2024-02-21T03:02:24;11.15;;;5.35;;
84101;SDS011;74198;51.618;8.334;2024-02-21T03:04:50;10.30;;;5.13;;
84101;SDS011;74198;51.618;8.334;2024-02-21T03:07:16;8.45;;;4.03;;
84101;SDS011;74198;51.618;8.334;2024-02-21T03:09:42;19.73;;;6.13;;
84101;SDS011;74198;51.618;8.334;2024-02-21T03:12:08;11.10;;;4.00;;
84101;SDS011;74198;51.618;8.334;2024-02-21T03:14:34;6.93;;;2.90;;
84101;SDS011;74198;51.618;8.334;2024-02-21T03:17:00;12.15;;;5.32;;
84101;SDS011;74198;51.618;8.334;2024-02-21T03:19:27;14.15;;;4.70;;
84101;SDS011;74198;51.618;8.334;2024-02-21T03:21:53;11.40;;;4.82;;
84101;SDS011;74198;51.618;8.334;2024-02-21T03:24:19;13.13;;;4.57;;
84101;SDS011;74198;51.618;8.334;2024-02-21T03:26:45;12.80;;;5.20;;
84101;SDS011;74198;51.618;8.334;2024-02-21T03:29:15;14.85;;;5.35;;
84101;SDS011;74198;51.618;8.334;2024-02-21T03:31:42;13.00;;;5.22;;
84101;SDS011;74198;51.618;8.334;2024-02-21T03:34:11;10.57;;;4.63;;
84101;SDS011;74198;51.618;8.334;2024-02-21T03:36:37;16.70;;;6.30;;
84101;SDS011;74198;51.618;8.334;2024-02-21T03:39:03;10.07;;;3.58;;
84101;SDS011;74198;51.618;8.334;2024-02-21T03:41:30;4.68;;;2.67;;
84101;SDS011;74198;51.618;8.334;2024-02-21T03:43:56;7.95;;;3.45;;
84101;SDS011;74198;51.618;8.334;2024-02-21T03:46:23;9.40;;;4.22;;
84101;SDS011;74198;51.618;8.334;2024-02-21T03:48:50;9.82;;;2.65;;
84101;SDS011;74198;51.618;8.334;2024-02-21T03:51:16;18.33;;;4.60;;
84101;SDS011;74198;51.618;8.334;2024-02-21T03:53:42;15.02;;;4.88;;
84101;SDS011;74198;51.618;8.334;2024-02-21T03:56:08;14.70;;;5.47;;
84101;SDS011;74198;51.618;8.334;2024-02-21T03:58:34;13.48;;;4.90;;
84101;SDS011;74198;51.618;8.334;2024-02-21T04:01:00;14.57;;;5.68;;
84101;SDS011;74198;51.618;8.334;2024-02-21T04:03:26;12.30;;;4.88;;
84101;SDS011;74198;51.618;8.334;2024-02-21T04:05:52;15.60;;;5.80;;
84101;SDS011;74198;51.618;8.334;2024-02-21T04:08:19;13.00;;;5.18;;
84101;SDS011;74198;51.618;8.334;2024-02-21T04:10:45;11.32;;;5.20;;
84101;SDS011;74198;51.618;8.334;2024-02-21T04:13:11;12.25;;;5.07;;
84101;SDS011;74198;51.618;8.334;2024-02-21T04:15:36;6.03;;;2.25;;
84101;SDS011;74198;51.618;8.334;2024-02-21T04:18:02;14.02;;;5.57;;
84101;SDS011;74198;51.618;8.334;2024-02-21T04:20:29;9.68;;;4.50;;
84101;SDS011;74198;51.618;8.334;2024-02-21T04:22:55;14.48;;;5.68;;
84101;SDS011;74198;51.618;8.334;2024-02-21T04:25:21;19.80;;;6.18;;
84101;SDS011;74198;51.618;8.334;2024-02-21T04:27:47;14.45;;;5.28;;
84101;SDS011;74198;51.618;8.334;2024-02-21T04:30:13;19.42;;;6.20;;
84101;SDS011;74198;51.618;8.334;2024-02-21T04:32:40;16.35;;;5.65;;
84101;SDS011;74198;51.618;8.334;2024-02-21T04:35:06;11.60;;;5.13;;
84101;SDS011;74198;51.618;8.334;2024-02-21T04:37:33;13.82;;;6.13;;
84101;SDS011;74198;51.618;8.334;2024-02-21T04:39:59;12.38;;;5.10;;
84101;SDS011;74198;51.618;8.334;2024-02-21T04:42:25;14.05;;;5.43;;
84101;SDS011;74198;51.618;8.334;2024-02-21T04:44:51;12.38;;;5.25;;
84101;SDS011;74198;51.618;8.334;2024-02-21T04:47:17;14.93;;;5.47;;
84101;SDS011;74198;51.618;8.334;2024-02-21T04:49:43;14.48;;;4.93;;
84101;SDS011;74198;51.618;8.334;2024-02-21T04:52:09;14.27;;;5.20;;
84101;SDS011;74198;51.618;8.334;2024-02-21T04:54:35;11.63;;;5.10;;
84101;SDS011;74198;51.618;8.334;2024-02-21T04:57:01;16.60;;;5.22;;
84101;SDS011;74198;51.618;8.334;2024-02-21T04:59:27;13.63;;;5.22;;
84101;SDS011;74198;51.618;8.334;2024-02-21T05:01:54;11.93;;;5.20;;
84101;SDS011;74198;51.618;8.334;2024-02-21T05:04:20;10.23;;;4.13;;
84101;SDS011;74198;51.618;8.334;2024-02-21T05:06:46;17.55;;;6.63;;
84101;SDS011;74198;51.618;8.334;2024-02-21T05:09:12;11.60;;;5.13;;
84101;SDS011;74198;51.618;8.334;2024-02-21T05:11:38;15.35;;;4.93;;
84101;SDS011;74198;51.618;8.334;2024-02-21T05:14:04;15.07;;;5.90;;
84101;SDS011;74198;51.618;8.334;2024-02-21T05:16:31;14.60;;;5.45;;
84101;SDS011;74198;51.618;8.334;2024-02-21T05:18:57;12.95;;;5.13;;
84101;SDS011;74198;51.618;8.334;2024-02-21T05:21:23;10.52;;;5.60;;
84101;SDS011;74198;51.618;8.334;2024-02-21T05:23:49;11.65;;;4.82;;
84101;SDS011;74198;51.618;8.334;2024-02-21T05:26:25;20.58;;;6.05;;
84101;SDS011;74198;51.618;8.334;2024-02-21T05:28:51;12.68;;;5.10;;
84101;SDS011;74198;51.618;8.334;2024-02-21T05:31:18;12.27;;;4.85;;
84101;SDS011;74198;51.618;8.334;2024-02-21T05:33:44;11.70;;;5.35;;
84101;SDS011;74198;51.618;8.334;2024-02-21T05:36:11;11.90;;;5.47;;
84101;SDS011;74198;51.618;8.334;2024-02-21T05:38:37;14.32;;;5.72;;
84101;SDS011;74198;51.618;8.334;2024-02-21T05:41:03;11.75;;;4.57;;
84101;SDS011;74198;51.618;8.334;2024-02-21T05:43:29;15.65;;;6.13;;
84101;SDS011;74198;51.618;8.334;2024-02-21T05:45:55;13.30;;;5.40;;
84101;SDS011;74198;51.618;8.334;2024-02-21T05:48:22;12.90;;;5.90;;
84101;SDS011;74198;51.618;8.334;2024-02-21T05:50:48;13.02;;;5.80;;
84101;SDS011;74198;51.618;8.334;2024-02-21T05:53:14;14.38;;;5.95;;
84101;SDS011;74198;51.618;8.334;2024-02-21T05:55:40;11.02;;;5.18;;
84101;SDS011;74198;51.618;8.334;2024-02-21T05:58:06;12.25;;;5.18;;
84101;SDS011;74198;51.618;8.334;2024-02-21T06:00:32;12.25;;;4.30;;
84101;SDS011;74198;51.618;8.334;2024-02-21T06:02:58;15.18;;;5.90;;
84101;SDS011;74198;51.618;8.334;2024-02-21T06:05:24;15.35;;;5.72;;
84101;SDS011;74198;51.618;8.334;2024-02-21T06:07:50;12.40;;;5.10;;
84101;SDS011;74198;51.618;8.334;2024-02-21T06:10:16;7.80;;;2.53;;
84101;SDS011;74198;51.618;8.334;2024-02-21T06:12:44;12.55;;;5.50;;
84101;SDS011;74198;51.618;8.334;2024-02-21T06:15:10;14.18;;;5.07;;
84101;SDS011;74198;51.618;8.334;2024-02-21T06:17:36;12.70;;;4.75;;
84101;SDS011;74198;51.618;8.334;2024-02-21T06:20:02;10.10;;;4.95;;
84101;SDS011;74198;51.618;8.334;2024-02-21T06:22:28;10.02;;;4.28;;
84101;SDS011;74198;51.618;8.334;2024-02-21T06:24:55;8.57;;;4.18;;
84101;SDS011;74198;51.618;8.334;2024-02-21T06:27:21;14.70;;;3.83;;
84101;SDS011;74198;51.618;8.334;2024-02-21T06:29:49;7.57;;;3.90;;
84101;SDS011;74198;51.618;8.334;2024-02-21T06:32:15;9.23;;;4.22;;
84101;SDS011;74198;51.618;8.334;2024-02-21T06:34:41;6.72;;;3.15;;
84101;SDS011;74198;51.618;8.334;2024-02-21T06:37:07;15.70;;;6.45;;
84101;SDS011;74198;51.618;8.334;2024-02-21T06:39:33;12.18;;;3.97;;
84101;SDS011;74198;51.618;8.334;2024-02-21T06:41:59;9.35;;;3.25;;
84101;SDS011;74198;51.618;8.334;2024-02-21T06:44:25;5.38;;;2.42;;
84101;SDS011;74198;51.618;8.334;2024-02-21T06:46:51;11.27;;;3.83;;
84101;SDS011;74198;51.618;8.334;2024-02-21T06:49:17;10.82;;;5.32;;
84101;SDS011;74198;51.618;8.334;2024-02-21T06:51:43;8.30;;;3.95;;
84101;SDS011;74198;51.618;8.334;2024-02-21T06:54:09;13.05;;;4.50;;
84101;SDS011;74198;51.618;8.334;2024-02-21T06:56:35;11.20;;;3.53;;
84101;SDS011;74198;51.618;8.334;2024-02-21T06:59:02;10.30;;;3.50;;
84101;SDS011;74198;51.618;8.334;2024-02-21T07:01:31;12.15;;;4.28;;
84101;SDS011;74198;51.618;8.334;2024-02-21T07:03:57;11.73;;;5.07;;
84101;SDS011;74198;51.618;8.334;2024-02-21T07:06:23;8.93;;;3.53;;
84101;SDS011;74198;51.618;8.334;2024-02-21T07:08:49;10.63;;;4.13;;
84101;SDS011;74198;51.618;8.334;2024-02-21T07:11:15;11.88;;;4.90;;
84101;SDS011;74198;51.618;8.334;2024-02-21T07:13:41;9.75;;;4.60;;
84101;SDS011;74198;51.618;8.334;2024-02-21T07:16:07;5.35;;;2.92;;
84101;SDS011;74198;51.618;8.334;2024-02-21T07:18:33;5.03;;;2.05;;
84101;SDS011;74198;51.618;8.334;2024-02-21T07:20:59;10.32;;;4.80;;
84101;SDS011;74198;51.618;8.334;2024-02-21T07:23:25;8.07;;;3.65;;
84101;SDS011;74198;51.618;8.334;2024-02-21T07:25:51;11.07;;;4.60;;
84101;SDS011;74198;51.618;8.334;2024-02-21T07:28:17;10.02;;;4.47;;
84101;SDS011;74198;51.618;8.334;2024-02-21T07:30:43;5.72;;;2.17;;
84101;SDS011;74198;51.618;8.334;2024-02-21T07:33:09;8.68;;;3.38;;
84101;SDS011;74198;51.618;8.334;2024-02-21T07:35:35;7.47;;;2.88;;
84101;SDS011;74198;51.618;8.334;2024-02-21T07:38:06;12.20;;;4.45;;
84101;SDS011;74198;51.618;8.334;2024-02-21T07:40:37;8.68;;;4.30;;
84101;SDS011;74198;51.618;8.334;2024-02-21T07:43:03;10.10;;;3.90;;
84101;SDS011;74198;51.618;8.334;2024-02-21T07:45:29;11.55;;;3.63;;
84101;SDS011;74198;51.618;8.334;2024-02-21T07:47:55;6.15;;;1.88;;
84101;SDS011;74198;51.618;8.334;2024-02-21T07:50:21;3.33;;;1.60;;
84101;SDS011;74198;51.618;8.334;2024-02-21T07:52:47;9.15;;;3.97;;
84101;SDS011;74198;51.618;8.334;2024-02-21T07:55:13;4.93;;;2.05;;
84101;SDS011;74198;51.618;8.334;2024-02-21T07:57:39;7.75;;;2.75;;
84101;SDS011;74198;51.618;8.334;2024-02-21T08:00:05;7.95;;;3.50;;
84101;SDS011;74198;51.618;8.334;2024-02-21T08:02:34;11.40;;;4.30;;
84101;SDS011;74198;51.618;8.334;2024-02-21T08:05:00;10.63;;;4.10;;
84101;SDS011;74198;51.618;8.334;2024-02-21T08:07:26;6.32;;;2.20;;
84101;SDS011;74198;51.618;8.334;2024-02-21T08:09:54;4.88;;;2.25;;
84101;SDS011;74198;51.618;8.334;2024-02-21T08:12:20;7.63;;;2.88;;
84101;SDS011;74198;51.618;8.334;2024-02-21T08:14:46;6.97;;;1.83;;
84101;SDS011;74198;51.618;8.334;2024-02-21T08:17:12;6.28;;;3.17;;
84101;SDS011;74198;51.618;8.334;2024-02-21T08:19:38;7.45;;;2.60;;
84101;SDS011;74198;51.618;8.334;2024-02-21T08:22:03;8.18;;;2.80;;
84101;SDS011;74198;51.618;8.334;2024-02-21T08:24:29;11.82;;;3.85;;
84101;SDS011;74198;51.618;8.334;2024-02-21T08:26:55;8.75;;;3.00;;
84101;SDS011;74198;51.618;8.334;2024-02-21T08:29:21;8.05;;;3.25;;
84101;SDS011;74198;51.618;8.334;2024-02-21T08:31:48;5.57;;;2.63;;
84101;SDS011;74198;51.618;8.334;2024-02-21T08:34:14;5.40;;;2.42;;
84101;SDS011;74198;51.618;8.334;2024-02-21T08:36:40;9.15;;;2.95;;
84101;SDS011;74198;51.618;8.334;2024-02-21T08:39:06;5.60;;;2.72;;
84101;SDS011;74198;51.618;8.334;2024-02-21T08:41:34;7.57;;;2.60;;
84101;SDS011;74198;51.618;8.334;2024-02-21T08:44:00;5.28;;;1.98;;
84101;SDS011;74198;51.618;8.334;2024-02-21T08:46:26;9.50;;;3.70;;
84101;SDS011;74198;51.618;8.334;2024-02-21T08:48:53;6.82;;;3.53;;
84101;SDS011;74198;51.618;8.334;2024-02-21T08:51:19;9.05;;;4.55;;
84101;SDS011;74198;51.618;8.334;2024-02-21T08:53:46;5.50;;;2.90;;
84101;SDS011;74198;51.618;8.334;2024-02-21T08:56:12;9.15;;;3.90;;
84101;SDS011;74198;51.618;8.334;2024-02-21T08:58:41;11.30;;;4.90;;
84101;SDS011;74198;51.618;8.334;2024-02-21T09:01:07;9.60;;;4.25;;
84101;SDS011;74198;51.618;8.334;2024-02-21T09:03:37;5.45;;;2.40;;
84101;SDS011;74198;51.618;8.334;2024-02-21T09:06:06;12.43;;;4.95;;
84101;SDS011;74198;51.618;8.334;2024-02-21T09:08:32;10.80;;;5.68;;
84101;SDS011;74198;51.618;8.334;2024-02-21T09:10:59;7.10;;;3.63;;
84101;SDS011;74198;51.618;8.334;2024-02-21T09:13:28;10.38;;;4.55;;
84101;SDS011;74198;51.618;8.334;2024-02-21T09:15:55;13.65;;;5.57;;
84101;SDS011;74198;51.618;8.334;2024-02-21T09:18:21;11.02;;;4.57;;
84101;SDS011;74198;51.618;8.334;2024-02-21T09:20:47;11.57;;;4.78;;
84101;SDS011;74198;51.618;8.334;2024-02-21T09:23:13;8.32;;;3.80;;
84101;SDS011;74198;51.618;8.334;2024-02-21T09:25:39;13.95;;;6.05;;
84101;SDS011;74198;51.618;8.334;2024-02-21T09:28:05;12.05;;;4.90;;
84101;SDS011;74198;51.618;8.334;2024-02-21T09:30:31;11.98;;;5.20;;
84101;SDS011;74198;51.618;8.334;2024-02-21T09:32:57;13.05;;;4.63;;
84101;SDS011;74198;51.618;8.334;2024-02-21T09:35:24;8.02;;;3.35;;
84101;SDS011;74198;51.618;8.334;2024-02-21T09:37:52;9.93;;;4.22;;
84101;SDS011;74198;51.618;8.334;2024-02-21T09:40:18;8.77;;;4.30;;
84101;SDS011;74198;51.618;8.334;2024-02-21T09:42:44;8.50;;;3.58;;
84101;SDS011;74198;51.618;8.334;2024-02-21T09:45:30;10.52;;;3.85;;
84101;SDS011;74198;51.618;8.334;2024-02-21T09:50:28;8.13;;;3.00;;
84101;SDS011;74198;51.618;8.334;2024-02-21T09:52:54;6.18;;;3.03;;
84101;SDS011;74198;51.618;8.334;2024-02-21T09:55:22;8.15;;;3.55;;
84101;SDS011;74198;51.618;8.334;2024-02-21T09:57:48;7.03;;;2.83;;
84101;SDS011;74198;51.618;8.334;2024-02-21T10:00:15;10.43;;;3.55;;
84101;SDS011;74198;51.618;8.334;2024-02-21T10:02:46;7.10;;;2.92;;
84101;SDS011;74198;51.618;8.334;2024-02-21T10:05:12;9.75;;;2.33;;
84101;SDS011;74198;51.618;8.334;2024-02-21T10:07:38;8.98;;;3.63;;
84101;SDS011;74198;51.618;8.334;2024-02-21T10:10:05;4.25;;;1.73;;
84101;SDS011;74198;51.618;8.334;2024-02-21T10:12:31;3.70;;;1.85;;
84101;SDS011;74198;51.618;8.334;2024-02-21T10:15:04;5.22;;;2.40;;
84101;SDS011;74198;51.618;8.334;2024-02-21T10:17:30;8.05;;;2.60;;
84101;SDS011;74198;51.618;8.334;2024-02-21T10:20:08;6.55;;;2.22;;
84101;SDS011;74198;51.618;8.334;2024-02-21T10:22:34;7.43;;;2.05;;
84101;SDS011;74198;51.618;8.334;2024-02-21T10:25:11;7.60;;;2.92;;
84101;SDS011;74198;51.618;8.334;2024-02-21T10:27:37;6.07;;;2.03;;
84101;SDS011;74198;51.618;8.334;2024-02-21T10:30:07;5.70;;;2.13;;
84101;SDS011;74198;51.618;8.334;2024-02-21T10:32:33;6.50;;;1.98;;
84101;SDS011;74198;51.618;8.334;2024-02-21T10:35:03;4.47;;;1.90;;
84101;SDS011;74198;51.618;8.334;2024-02-21T10:37:29;7.00;;;1.85;;
84101;SDS011;74198;51.618;8.334;2024-02-21T10:39:56;5.43;;;1.50;;
84101;SDS011;74198;51.618;8.334;2024-02-21T10:42:22;4.65;;;1.40;;
84101;SDS011;74198;51.618;8.334;2024-02-21T10:44:51;7.55;;;2.05;;
84101;SDS011;74198;51.618;8.334;2024-02-21T10:47:17;3.28;;;1.20;;
84101;SDS011;74198;51.618;8.334;2024-02-21T10:49:46;4.82;;;1.38;;
84101;SDS011;74198;51.618;8.334;2024-02-21T10:52:38;6.25;;;1.80;;
84101;SDS011;74198;51.618;8.334;2024-02-21T10:55:10;5.55;;;1.48;;
84101;SDS011;74198;51.618;8.334;2024-02-21T10:57:37;2.97;;;1.10;;
84101;SDS011;74198;51.618;8.334;2024-02-21T11:00:03;2.25;;;1.13;;
84101;SDS011;74198;51.618;8.334;2024-02-21T11:02:33;3.42;;;0.90;;
84101;SDS011;74198;51.618;8.334;2024-02-21T11:04:59;3.83;;;1.33;;
84101;SDS011;74198;51.618;8.334;2024-02-21T11:07:28;2.63;;;1.40;;
84101;SDS011;74198;51.618;8.334;2024-02-21T11:09:55;5.70;;;1.60;;
84101;SDS011;74198;51.618;8.334;2024-02-21T11:12:21;4.22;;;1.52;;
84101;SDS011;74198;51.618;8.334;2024-02-21T11:14:47;3.65;;;1.60;;
84101;SDS011;74198;51.618;8.334;2024-02-21T11:17:17;5.10;;;1.70;;
84101;SDS011;74198;51.618;8.334;2024-02-21T11:19:43;7.25;;;2.13;;
84101;SDS011;74198;51.618;8.334;2024-02-21T11:22:16;4.95;;;2.30;;
84101;SDS011;74198;51.618;8.334;2024-02-21T11:24:43;8.13;;;2.30;;
84101;SDS011;74198;51.618;8.334;2024-02-21T11:27:09;5.65;;;1.17;;
84101;SDS011;74198;51.618;8.334;2024-02-21T11:29:54;3.95;;;1.65;;
84101;SDS011;74198;51.618;8.334;2024-02-21T11:32:21;6.18;;;2.05;;
84101;SDS011;74198;51.618;8.334;2024-02-21T11:34:54;8.68;;;3.00;;
84101;SDS011;74198;51.618;8.334;2024-02-21T11:37:20;5.75;;;2.17;;
84101;SDS011;74198;51.618;8.334;2024-02-21T11:39:46;3.22;;;1.20;;
84101;SDS011;74198;51.618;8.334;2024-02-21T11:42:13;7.03;;;2.55;;
84101;SDS011;74198;51.618;8.334;2024-02-21T11:44:39;3.53;;;1.45;;
84101;SDS011;74198;51.618;8.334;2024-02-21T11:47:07;6.15;;;2.25;;
84101;SDS011;74198;51.618;8.334;2024-02-21T11:49:42;5.20;;;2.40;;
84101;SDS011;74198;51.618;8.334;2024-02-21T11:52:09;3.47;;;1.80;;
84101;SDS011;74198;51.618;8.334;2024-02-21T11:54:35;5.60;;;1.52;;
84101;SDS011;74198;51.618;8.334;2024-02-21T11:57:01;5.40;;;2.33;;
84101;SDS011;74198;51.618;8.334;2024-02-21T11:59:31;3.60;;;1.67;;
84101;SDS011;74198;51.618;8.334;2024-02-21T12:01:58;3.97;;;1.95;;
84101;SDS011;74198;51.618;8.334;2024-02-21T12:04:24;6.38;;;2.13;;
84101;SDS011;74198;51.618;8.334;2024-02-21T12:06:50;3.53;;;2.00;;
84101;SDS011;74198;51.618;8.334;2024-02-21T12:09:18;4.13;;;1.38;;
84101;SDS011;74198;51.618;8.334;2024-02-21T12:11:44;6.40;;;2.28;;
84101;SDS011;74198;51.618;8.334;2024-02-21T12:14:15;2.85;;;1.38;;
84101;SDS011;74198;51.618;8.334;2024-02-21T12:16:41;3.83;;;1.65;;
84101;SDS011;74198;51.618;8.334;2024-02-21T12:19:12;6.82;;;1.90;;
84101;SDS011;74198;51.618;8.334;2024-02-21T12:21:38;7.45;;;2.20;;
84101;SDS011;74198;51.618;8.334;2024-02-21T12:26:38;3.65;;;1.52;;
84101;SDS011;74198;51.618;8.334;2024-02-21T12:29:04;4.28;;;2.20;;
84101;SDS011;74198;51.618;8.334;2024-02-21T12:31:30;8.18;;;2.08;;
84101;SDS011;74198;51.618;8.334;2024-02-21T12:33:56;3.92;;;1.90;;
84101;SDS011;74198;51.618;8.334;2024-02-21T12:36:22;3.40;;;2.05;;
84101;SDS011;74198;51.618;8.334;2024-02-21T12:38:48;4.78;;;2.10;;
84101;SDS011;74198;51.618;8.334;2024-02-21T12:41:15;6.57;;;2.17;;
84101;SDS011;74198;51.618;8.334;2024-02-21T12:43:41;7.20;;;2.60;;
84101;SDS011;74198;51.618;8.334;2024-02-21T12:46:07;7.25;;;2.40;;
84101;SDS011;74198;51.618;8.334;2024-02-21T12:48:34;7.40;;;1.92;;
84101;SDS011;74198;51.618;8.334;2024-02-21T12:50:59;9.05;;;2.33;;
84101;SDS011;74198;51.618;8.334;2024-02-21T12:53:25;7.70;;;2.17;;
84101;SDS011;74198;51.618;8.334;2024-02-21T12:55:52;7.63;;;2.03;;
84101;SDS011;74198;51.618;8.334;2024-02-21T12:58:18;13.43;;;2.00;;
84101;SDS011;74198;51.618;8.334;2024-02-21T13:00:44;6.07;;;2.05;;
84101;SDS011;74198;51.618;8.334;2024-02-21T13:03:10;11.32;;;2.28;;
84101;SDS011;74198;51.618;8.334;2024-02-21T13:05:36;8.10;;;1.77;;
84101;SDS011;74198;51.618;8.334;2024-02-21T13:08:03;5.65;;;1.77;;
84101;SDS011;74198;51.618;8.334;2024-02-21T13:10:29;5.88;;;2.03;;
84101;SDS011;74198;51.618;8.334;2024-02-21T13:12:55;5.07;;;1.58;;
84101;SDS011;74198;51.618;8.334;2024-02-21T13:15:21;5.55;;;2.13;;
84101;SDS011;74198;51.618;8.334;2024-02-21T13:17:47;7.78;;;2.22;;
84101;SDS011;74198;51.618;8.334;2024-02-21T13:20:13;10.52;;;1.58;;
84101;SDS011;74198;51.618;8.334;2024-02-21T13:22:39;5.45;;;1.48;;
84101;SDS011;74198;51.618;8.334;2024-02-21T13:25:05;7.22;;;1.77;;
84101;SDS011;74198;51.618;8.334;2024-02-21T13:27:32;3.97;;;1.25;;
84101;SDS011;74198;51.618;8.334;2024-02-21T13:29:58;8.20;;;2.17;;
84101;SDS011;74198;51.618;8.334;2024-02-21T13:32:26;5.95;;;1.90;;
84101;SDS011;74198;51.618;8.334;2024-02-21T13:34:52;9.98;;;1.95;;
84101;SDS011;74198;51.618;8.334;2024-02-21T13:37:18;6.13;;;1.83;;
84101;SDS011;74198;51.618;8.334;2024-02-21T13:39:44;6.78;;;1.75;;
84101;SDS011;74198;51.618;8.334;2024-02-21T13:42:11;7.15;;;2.50;;
84101;SDS011;74198;51.618;8.334;2024-02-21T13:44:37;6.28;;;1.95;;
84101;SDS011;74198;51.618;8.334;2024-02-21T13:47:04;10.77;;;2.10;;
84101;SDS011;74198;51.618;8.334;2024-02-21T13:49:30;5.03;;;2.00;;
84101;SDS011;74198;51.618;8.334;2024-02-21T13:51:56;7.57;;;2.17;;
84101;SDS011;74198;51.618;8.334;2024-02-21T13:54:22;11.40;;;2.22;;
84101;SDS011;74198;51.618;8.334;2024-02-21T13:56:48;7.20;;;1.83;;
84101;SDS011;74198;51.618;8.334;2024-02-21T13:59:15;5.03;;;1.63;;
84101;SDS011;74198;51.618;8.334;2024-02-21T14:01:41;4.53;;;1.90;;
84101;SDS011;74198;51.618;8.334;2024-02-21T14:04:08;4.07;;;1.48;;
84101;SDS011;74198;51.618;8.334;2024-02-21T14:06:34;10.45;;;2.40;;
84101;SDS011;74198;51.618;8.334;2024-02-21T14:09:00;7.88;;;1.95;;
84101;SDS011;74198;51.618;8.334;2024-02-21T14:11:26;3.97;;;1.92;;
84101;SDS011;74198;51.618;8.334;2024-02-21T14:13:52;6.15;;;1.98;;
84101;SDS011;74198;51.618;8.334;2024-02-21T14:16:22;6.93;;;1.80;;
84101;SDS011;74198;51.618;8.334;2024-02-21T14:18:48;5.13;;;1.70;;
84101;SDS011;74198;51.618;8.334;2024-02-21T14:21:14;10.63;;;2.33;;
84101;SDS011;74198;51.618;8.334;2024-02-21T14:23:40;5.60;;;1.75;;
84101;SDS011;74198;51.618;8.334;2024-02-21T14:26:06;4.68;;;1.77;;
84101;SDS011;74198;51.618;8.334;2024-02-21T14:28:32;5.82;;;1.08;;
84101;SDS011;74198;51.618;8.334;2024-02-21T14:31:01;7.50;;;1.88;;
84101;SDS011;74198;51.618;8.334;2024-02-21T14:33:28;5.30;;;2.08;;
84101;SDS011;74198;51.618;8.334;2024-02-21T14:35:57;5.53;;;1.85;;
84101;SDS011;74198;51.618;8.334;2024-02-21T14:38:24;7.40;;;2.40;;
84101;SDS011;74198;51.618;8.334;2024-02-21T14:40:50;4.88;;;1.80;;
84101;SDS011;74198;51.618;8.334;2024-02-21T14:43:16;7.63;;;1.75;;
84101;SDS011;74198;51.618;8.334;2024-02-21T14:45:43;4.55;;;1.90;;